Ferrells Creek, Kentucky
Current Conditions -  °F | °C
As of 2:15 PM on Friday 21 Nov 2014 (Local Time) from KPBX Reporting Station
Clear Clear  
Wind Chill: 36°   Ceiling: Unl
Heat Index: 36°   Visibility: 10mi
Dew Point: 12°   Wind: 0mph
Humidity: 37%   Direction: NA
Pressure: 30.44"   Gusts: NA
Location:  37.3106°N, 82.4001°W
Report Text: KPBX 211915Z AUTO 00000KT 10SM CLR 02/M11 A3044 RMK AO2 T00211113
Loading
Personal Weather Stations






























Interactive Weather Map New forecast layout! Learn more

10-Day Weather Forecast

Advertisements
Track Severe Weather on mobile